sensor_id;sensor_type;location;lat;lon;timestamp;temperature;humidity
55313;DHT22;46892;45.668;11.756;2024-01-15T00:00:41;2.10;87.10
55313;DHT22;46892;45.668;11.756;2024-01-15T00:03:07;2.10;87.00
55313;DHT22;46892;45.668;11.756;2024-01-15T00:05:33;2.00;87.10
55313;DHT22;46892;45.668;11.756;2024-01-15T00:07:59;2.10;87.10
55313;DHT22;46892;45.668;11.756;2024-01-15T00:10:24;2.00;87.00
55313;DHT22;46892;45.668;11.756;2024-01-15T00:12:50;2.00;87.10
55313;DHT22;46892;45.668;11.756;2024-01-15T00:15:17;2.00;87.10
55313;DHT22;46892;45.668;11.756;2024-01-15T00:17:43;2.00;87.10
55313;DHT22;46892;45.668;11.756;2024-01-15T00:20:09;2.00;86.90
55313;DHT22;46892;45.668;11.756;2024-01-15T00:22:35;1.90;87.10
55313;DHT22;46892;45.668;11.756;2024-01-15T00:25:02;2.00;87.10
55313;DHT22;46892;45.668;11.756;2024-01-15T00:27:27;2.00;87.80
55313;DHT22;46892;45.668;11.756;2024-01-15T00:29:53;2.10;87.70
55313;DHT22;46892;45.668;11.756;2024-01-15T00:32:20;2.10;87.40
55313;DHT22;46892;45.668;11.756;2024-01-15T00:34:46;2.10;87.50
55313;DHT22;46892;45.668;11.756;2024-01-15T00:37:12;2.00;87.30
55313;DHT22;46892;45.668;11.756;2024-01-15T00:39:38;2.00;87.50
55313;DHT22;46892;45.668;11.756;2024-01-15T00:42:04;2.00;87.50
55313;DHT22;46892;45.668;11.756;2024-01-15T00:44:29;2.00;87.70
55313;DHT22;46892;45.668;11.756;2024-01-15T00:46:55;2.00;87.90
55313;DHT22;46892;45.668;11.756;2024-01-15T00:49:21;2.00;87.80
55313;DHT22;46892;45.668;11.756;2024-01-15T00:51:47;2.00;87.50
55313;DHT22;46892;45.668;11.756;2024-01-15T00:54:13;1.90;87.50
55313;DHT22;46892;45.668;11.756;2024-01-15T00:56:38;1.90;87.40
55313;DHT22;46892;45.668;11.756;2024-01-15T00:59:04;1.90;87.60
55313;DHT22;46892;45.668;11.756;2024-01-15T01:01:31;1.90;87.50
55313;DHT22;46892;45.668;11.756;2024-01-15T01:03:57;1.90;87.40
55313;DHT22;46892;45.668;11.756;2024-01-15T01:06:23;1.90;87.40
55313;DHT22;46892;45.668;11.756;2024-01-15T01:08:48;1.80;87.50
55313;DHT22;46892;45.668;11.756;2024-01-15T01:11:15;2.00;87.30
55313;DHT22;46892;45.668;11.756;2024-01-15T01:13:41;1.90;87.70
55313;DHT22;46892;45.668;11.756;2024-01-15T01:16:07;2.00;88.20
55313;DHT22;46892;45.668;11.756;2024-01-15T01:18:32;2.00;87.50
55313;DHT22;46892;45.668;11.756;2024-01-15T01:20:58;2.10;87.10
55313;DHT22;46892;45.668;11.756;2024-01-15T01:23:24;2.00;87.10
55313;DHT22;46892;45.668;11.756;2024-01-15T01:25:50;2.00;87.10
55313;DHT22;46892;45.668;11.756;2024-01-15T01:28:15;2.00;87.10
55313;DHT22;46892;45.668;11.756;2024-01-15T01:30:41;2.00;87.20
55313;DHT22;46892;45.668;11.756;2024-01-15T01:33:07;2.00;87.20
55313;DHT22;46892;45.668;11.756;2024-01-15T01:35:32;2.00;87.20
55313;DHT22;46892;45.668;11.756;2024-01-15T01:37:58;2.00;88.00
55313;DHT22;46892;45.668;11.756;2024-01-15T01:40:24;2.10;87.60
55313;DHT22;46892;45.668;11.756;2024-01-15T01:42:49;2.00;87.40
55313;DHT22;46892;45.668;11.756;2024-01-15T01:45:15;1.90;87.40
55313;DHT22;46892;45.668;11.756;2024-01-15T01:47:41;1.90;87.40
55313;DHT22;46892;45.668;11.756;2024-01-15T01:50:07;1.90;87.30
55313;DHT22;46892;45.668;11.756;2024-01-15T01:52:34;1.90;87.10
55313;DHT22;46892;45.668;11.756;2024-01-15T01:55:02;1.80;87.10
55313;DHT22;46892;45.668;11.756;2024-01-15T01:57:29;1.80;87.10
55313;DHT22;46892;45.668;11.756;2024-01-15T01:59:56;1.80;87.20
55313;DHT22;46892;45.668;11.756;2024-01-15T02:02:24;1.80;87.50
55313;DHT22;46892;45.668;11.756;2024-01-15T02:04:50;1.90;88.40
55313;DHT22;46892;45.668;11.756;2024-01-15T02:07:15;1.90;87.70
55313;DHT22;46892;45.668;11.756;2024-01-15T02:09:44;1.90;87.40
55313;DHT22;46892;45.668;11.756;2024-01-15T02:12:10;1.90;87.20
55313;DHT22;46892;45.668;11.756;2024-01-15T02:14:36;1.80;86.60
55313;DHT22;46892;45.668;11.756;2024-01-15T02:17:02;1.70;87.00
55313;DHT22;46892;45.668;11.756;2024-01-15T02:19:27;1.70;87.10
55313;DHT22;46892;45.668;11.756;2024-01-15T02:21:53;1.60;87.20
55313;DHT22;46892;45.668;11.756;2024-01-15T02:24:19;1.60;87.50
55313;DHT22;46892;45.668;11.756;2024-01-15T02:26:45;1.80;88.10
55313;DHT22;46892;45.668;11.756;2024-01-15T02:29:11;1.80;87.70
55313;DHT22;46892;45.668;11.756;2024-01-15T02:31:38;1.70;86.90
55313;DHT22;46892;45.668;11.756;2024-01-15T02:34:03;1.60;86.60
55313;DHT22;46892;45.668;11.756;2024-01-15T02:36:29;1.50;86.60
55313;DHT22;46892;45.668;11.756;2024-01-15T02:38:55;1.40;86.80
55313;DHT22;46892;45.668;11.756;2024-01-15T02:41:21;1.50;87.90
55313;DHT22;46892;45.668;11.756;2024-01-15T02:43:46;1.60;87.50
55313;DHT22;46892;45.668;11.756;2024-01-15T02:46:12;1.40;86.60
55313;DHT22;46892;45.668;11.756;2024-01-15T02:48:38;1.30;86.70
55313;DHT22;46892;45.668;11.756;2024-01-15T02:51:04;1.30;87.40
55313;DHT22;46892;45.668;11.756;2024-01-15T02:53:29;1.30;87.80
55313;DHT22;46892;45.668;11.756;2024-01-15T02:55:55;1.20;87.00
55313;DHT22;46892;45.668;11.756;2024-01-15T02:58:21;1.10;87.30
55313;DHT22;46892;45.668;11.756;2024-01-15T03:00:47;1.10;87.30
55313;DHT22;46892;45.668;11.756;2024-01-15T03:03:13;1.00;87.60
55313;DHT22;46892;45.668;11.756;2024-01-15T03:05:39;1.00;87.60
55313;DHT22;46892;45.668;11.756;2024-01-15T03:08:05;1.10;88.50
55313;DHT22;46892;45.668;11.756;2024-01-15T03:10:30;1.10;88.10
55313;DHT22;46892;45.668;11.756;2024-01-15T03:12:57;1.20;88.10
55313;DHT22;46892;45.668;11.756;2024-01-15T03:15:23;1.20;87.70
55313;DHT22;46892;45.668;11.756;2024-01-15T03:17:48;1.20;87.80
55313;DHT22;46892;45.668;11.756;2024-01-15T03:20:14;1.20;87.50
55313;DHT22;46892;45.668;11.756;2024-01-15T03:22:40;1.10;86.70
55313;DHT22;46892;45.668;11.756;2024-01-15T03:25:06;1.00;86.10
55313;DHT22;46892;45.668;11.756;2024-01-15T03:27:32;0.80;86.60
55313;DHT22;46892;45.668;11.756;2024-01-15T03:29:58;0.60;86.50
55313;DHT22;46892;45.668;11.756;2024-01-15T03:32:23;0.60;87.30
55313;DHT22;46892;45.668;11.756;2024-01-15T03:34:49;0.40;87.20
55313;DHT22;46892;45.668;11.756;2024-01-15T03:37:15;0.40;87.50
55313;DHT22;46892;45.668;11.756;2024-01-15T03:39:41;0.50;87.90
55313;DHT22;46892;45.668;11.756;2024-01-15T03:42:07;0.50;88.10
55313;DHT22;46892;45.668;11.756;2024-01-15T03:44:32;0.60;88.60
55313;DHT22;46892;45.668;11.756;2024-01-15T03:46:58;0.60;88.20
55313;DHT22;46892;45.668;11.756;2024-01-15T03:49:24;0.70;87.40
55313;DHT22;46892;45.668;11.756;2024-01-15T03:51:50;0.70;87.70
55313;DHT22;46892;45.668;11.756;2024-01-15T03:54:15;0.70;86.90
55313;DHT22;46892;45.668;11.756;2024-01-15T03:56:41;0.60;87.70
55313;DHT22;46892;45.668;11.756;2024-01-15T03:59:07;0.70;87.90
55313;DHT22;46892;45.668;11.756;2024-01-15T04:01:33;0.70;87.20
55313;DHT22;46892;45.668;11.756;2024-01-15T04:03:58;0.70;88.10
55313;DHT22;46892;45.668;11.756;2024-01-15T04:06:24;0.80;87.60
55313;DHT22;46892;45.668;11.756;2024-01-15T04:08:50;0.80;87.30
55313;DHT22;46892;45.668;11.756;2024-01-15T04:11:15;0.80;87.50
55313;DHT22;46892;45.668;11.756;2024-01-15T04:13:41;0.70;87.10
55313;DHT22;46892;45.668;11.756;2024-01-15T04:16:07;0.70;86.80
55313;DHT22;46892;45.668;11.756;2024-01-15T04:18:32;0.50;86.40
55313;DHT22;46892;45.668;11.756;2024-01-15T04:20:58;0.40;86.40
55313;DHT22;46892;45.668;11.756;2024-01-15T04:23:24;0.30;86.80
55313;DHT22;46892;45.668;11.756;2024-01-15T04:25:50;0.30;87.10
55313;DHT22;46892;45.668;11.756;2024-01-15T04:28:15;0.30;87.40
55313;DHT22;46892;45.668;11.756;2024-01-15T04:30:41;0.20;87.30
55313;DHT22;46892;45.668;11.756;2024-01-15T04:33:07;0.00;87.20
55313;DHT22;46892;45.668;11.756;2024-01-15T04:35:33;0.20;87.30
55313;DHT22;46892;45.668;11.756;2024-01-15T04:38:00;0.20;87.30
55313;DHT22;46892;45.668;11.756;2024-01-15T04:40:25;0.20;87.50
55313;DHT22;46892;45.668;11.756;2024-01-15T04:42:53;0.10;88.00
55313;DHT22;46892;45.668;11.756;2024-01-15T04:45:19;0.20;87.90
55313;DHT22;46892;45.668;11.756;2024-01-15T04:47:48;0.20;87.90
55313;DHT22;46892;45.668;11.756;2024-01-15T04:50:14;0.20;88.10
55313;DHT22;46892;45.668;11.756;2024-01-15T04:52:40;0.30;88.20
55313;DHT22;46892;45.668;11.756;2024-01-15T04:55:06;0.20;87.70
55313;DHT22;46892;45.668;11.756;2024-01-15T04:57:31;0.20;87.80
55313;DHT22;46892;45.668;11.756;2024-01-15T04:59:58;0.20;87.30
55313;DHT22;46892;45.668;11.756;2024-01-15T05:02:23;0.20;87.20
55313;DHT22;46892;45.668;11.756;2024-01-15T05:04:49;0.20;87.20
55313;DHT22;46892;45.668;11.756;2024-01-15T05:07:15;0.10;86.50
55313;DHT22;46892;45.668;11.756;2024-01-15T05:09:40;0.10;86.40
55313;DHT22;46892;45.668;11.756;2024-01-15T05:12:06;0.00;86.40
55313;DHT22;46892;45.668;11.756;2024-01-15T05:14:32;0.00;86.60
55313;DHT22;46892;45.668;11.756;2024-01-15T05:16:58;-3276.70;86.80
55313;DHT22;46892;45.668;11.756;2024-01-15T05:19:24;-3276.60;86.90
55313;DHT22;46892;45.668;11.756;2024-01-15T05:21:49;-3276.60;87.30
55313;DHT22;46892;45.668;11.756;2024-01-15T05:24:15;-3276.60;87.30
55313;DHT22;46892;45.668;11.756;2024-01-15T05:26:41;-3276.60;87.30
55313;DHT22;46892;45.668;11.756;2024-01-15T05:29:07;-3276.50;87.40
55313;DHT22;46892;45.668;11.756;2024-01-15T05:31:32;-3276.50;87.20
55313;DHT22;46892;45.668;11.756;2024-01-15T05:33:58;-3276.40;87.60
55313;DHT22;46892;45.668;11.756;2024-01-15T05:36:24;-3276.30;88.10
55313;DHT22;46892;45.668;11.756;2024-01-15T05:38:50;-3276.40;88.50
55313;DHT22;46892;45.668;11.756;2024-01-15T05:41:15;-3276.40;88.70
55313;DHT22;46892;45.668;11.756;2024-01-15T05:43:41;-3276.40;88.60
55313;DHT22;46892;45.668;11.756;2024-01-15T05:46:07;-3276.40;88.50
55313;DHT22;46892;45.668;11.756;2024-01-15T05:48:33;-3276.50;88.70
55313;DHT22;46892;45.668;11.756;2024-01-15T05:50:59;-3276.60;88.80
55313;DHT22;46892;45.668;11.756;2024-01-15T05:53:25;-3276.70;88.80
55313;DHT22;46892;45.668;11.756;2024-01-15T05:55:50;-3276.70;88.60
55313;DHT22;46892;45.668;11.756;2024-01-15T05:58:16;-3276.70;88.90
55313;DHT22;46892;45.668;11.756;2024-01-15T06:00:42;0.00;88.40
55313;DHT22;46892;45.668;11.756;2024-01-15T06:03:08;0.00;88.50
55313;DHT22;46892;45.668;11.756;2024-01-15T06:05:34;0.00;88.20
55313;DHT22;46892;45.668;11.756;2024-01-15T06:07:59;0.00;88.10
55313;DHT22;46892;45.668;11.756;2024-01-15T06:10:25;0.00;87.90
55313;DHT22;46892;45.668;11.756;2024-01-15T06:12:51;0.00;87.40
55313;DHT22;46892;45.668;11.756;2024-01-15T06:15:17;0.00;87.70
55313;DHT22;46892;45.668;11.756;2024-01-15T06:17:42;0.00;87.90
55313;DHT22;46892;45.668;11.756;2024-01-15T06:20:08;0.00;87.30
55313;DHT22;46892;45.668;11.756;2024-01-15T06:22:34;0.00;87.40
55313;DHT22;46892;45.668;11.756;2024-01-15T06:25:02;0.10;87.30
55313;DHT22;46892;45.668;11.756;2024-01-15T06:27:28;0.10;87.20
55313;DHT22;46892;45.668;11.756;2024-01-15T06:29:54;0.10;86.80
55313;DHT22;46892;45.668;11.756;2024-01-15T06:32:21;0.10;86.80
55313;DHT22;46892;45.668;11.756;2024-01-15T06:34:47;0.10;86.60
55313;DHT22;46892;45.668;11.756;2024-01-15T06:37:13;0.10;86.80
55313;DHT22;46892;45.668;11.756;2024-01-15T06:39:38;0.20;86.80
55313;DHT22;46892;45.668;11.756;2024-01-15T06:42:04;0.20;86.50
55313;DHT22;46892;45.668;11.756;2024-01-15T06:44:30;0.20;86.40
55313;DHT22;46892;45.668;11.756;2024-01-15T06:46:56;0.20;86.30
55313;DHT22;46892;45.668;11.756;2024-01-15T06:49:23;0.00;86.00
55313;DHT22;46892;45.668;11.756;2024-01-15T06:51:48;0.00;86.50
55313;DHT22;46892;45.668;11.756;2024-01-15T06:54:14;0.10;86.50
55313;DHT22;46892;45.668;11.756;2024-01-15T06:56:40;0.10;86.40
55313;DHT22;46892;45.668;11.756;2024-01-15T06:59:06;0.00;86.40
55313;DHT22;46892;45.668;11.756;2024-01-15T07:01:31;0.10;86.70
55313;DHT22;46892;45.668;11.756;2024-01-15T07:03:57;0.30;87.20
55313;DHT22;46892;45.668;11.756;2024-01-15T07:06:23;0.40;86.90
55313;DHT22;46892;45.668;11.756;2024-01-15T07:08:49;0.40;86.70
55313;DHT22;46892;45.668;11.756;2024-01-15T07:11:15;0.50;86.50
55313;DHT22;46892;45.668;11.756;2024-01-15T07:13:41;0.50;86.20
55313;DHT22;46892;45.668;11.756;2024-01-15T07:16:06;0.60;86.30
55313;DHT22;46892;45.668;11.756;2024-01-15T07:18:32;0.50;86.30
55313;DHT22;46892;45.668;11.756;2024-01-15T07:20:58;0.50;85.30
55313;DHT22;46892;45.668;11.756;2024-01-15T07:23:24;0.50;86.60
55313;DHT22;46892;45.668;11.756;2024-01-15T07:25:50;0.50;86.00
55313;DHT22;46892;45.668;11.756;2024-01-15T07:28:16;0.40;85.80
55313;DHT22;46892;45.668;11.756;2024-01-15T07:30:41;0.30;85.70
55313;DHT22;46892;45.668;11.756;2024-01-15T07:33:07;0.30;85.80
55313;DHT22;46892;45.668;11.756;2024-01-15T07:35:33;0.60;87.40
55313;DHT22;46892;45.668;11.756;2024-01-15T07:37:59;0.80;86.70
55313;DHT22;46892;45.668;11.756;2024-01-15T07:40:24;0.80;85.70
55313;DHT22;46892;45.668;11.756;2024-01-15T07:42:51;0.70;85.10
55313;DHT22;46892;45.668;11.756;2024-01-15T07:45:17;0.70;85.80
55313;DHT22;46892;45.668;11.756;2024-01-15T07:47:43;0.60;85.50
55313;DHT22;46892;45.668;11.756;2024-01-15T07:50:09;0.50;86.00
55313;DHT22;46892;45.668;11.756;2024-01-15T07:52:35;0.60;86.50
55313;DHT22;46892;45.668;11.756;2024-01-15T07:55:01;0.70;87.50
55313;DHT22;46892;45.668;11.756;2024-01-15T07:57:29;0.80;86.80
55313;DHT22;46892;45.668;11.756;2024-01-15T07:59:54;0.60;86.00
55313;DHT22;46892;45.668;11.756;2024-01-15T08:02:20;0.60;87.20
55313;DHT22;46892;45.668;11.756;2024-01-15T08:04:47;0.70;87.20
55313;DHT22;46892;45.668;11.756;2024-01-15T08:07:13;0.70;86.90
55313;DHT22;46892;45.668;11.756;2024-01-15T08:09:38;0.80;87.30
55313;DHT22;46892;45.668;11.756;2024-01-15T08:12:04;0.70;86.70
55313;DHT22;46892;45.668;11.756;2024-01-15T08:14:31;0.70;86.80
55313;DHT22;46892;45.668;11.756;2024-01-15T08:16:57;0.70;87.00
55313;DHT22;46892;45.668;11.756;2024-01-15T08:19:23;0.90;87.70
55313;DHT22;46892;45.668;11.756;2024-01-15T08:21:49;1.00;87.40
55313;DHT22;46892;45.668;11.756;2024-01-15T08:24:15;1.20;86.90
55313;DHT22;46892;45.668;11.756;2024-01-15T08:26:42;1.40;87.10
55313;DHT22;46892;45.668;11.756;2024-01-15T08:29:09;1.50;86.00
55313;DHT22;46892;45.668;11.756;2024-01-15T08:31:35;1.70;86.10
55313;DHT22;46892;45.668;11.756;2024-01-15T08:34:01;1.90;85.90
55313;DHT22;46892;45.668;11.756;2024-01-15T10:04:06;4.10;79.60
55313;DHT22;46892;45.668;11.756;2024-01-15T10:06:32;4.20;81.60
55313;DHT22;46892;45.668;11.756;2024-01-15T10:08:59;4.10;81.00
55313;DHT22;46892;45.668;11.756;2024-01-15T10:11:25;4.00;80.20
55313;DHT22;46892;45.668;11.756;2024-01-15T10:13:51;4.00;81.50
55313;DHT22;46892;45.668;11.756;2024-01-15T10:16:21;4.00;80.30
55313;DHT22;46892;45.668;11.756;2024-01-15T10:18:48;4.10;81.10
55313;DHT22;46892;45.668;11.756;2024-01-15T10:21:14;4.10;81.00
55313;DHT22;46892;45.668;11.756;2024-01-15T10:23:41;4.20;81.90
55313;DHT22;46892;45.668;11.756;2024-01-15T10:26:07;4.30;82.50
55313;DHT22;46892;45.668;11.756;2024-01-15T10:28:33;4.30;80.50
55313;DHT22;46892;45.668;11.756;2024-01-15T10:31:00;4.40;81.00
55313;DHT22;46892;45.668;11.756;2024-01-15T10:33:26;4.50;81.30
55313;DHT22;46892;45.668;11.756;2024-01-15T10:36:00;4.50;79.20
55313;DHT22;46892;45.668;11.756;2024-01-15T10:38:26;4.60;79.30
55313;DHT22;46892;45.668;11.756;2024-01-15T10:40:53;4.60;79.90
55313;DHT22;46892;45.668;11.756;2024-01-15T10:43:19;4.60;80.20
55313;DHT22;46892;45.668;11.756;2024-01-15T10:45:46;4.70;80.10
55313;DHT22;46892;45.668;11.756;2024-01-15T10:48:13;4.70;79.50
55313;DHT22;46892;45.668;11.756;2024-01-15T10:50:39;4.60;79.10
55313;DHT22;46892;45.668;11.756;2024-01-15T10:53:05;4.70;79.90
55313;DHT22;46892;45.668;11.756;2024-01-15T10:55:32;4.80;80.60
55313;DHT22;46892;45.668;11.756;2024-01-15T10:57:59;4.80;79.80
55313;DHT22;46892;45.668;11.756;2024-01-15T11:00:26;4.80;80.90
55313;DHT22;46892;45.668;11.756;2024-01-15T11:02:53;4.90;81.60
55313;DHT22;46892;45.668;11.756;2024-01-15T11:05:23;5.00;81.10
55313;DHT22;46892;45.668;11.756;2024-01-15T11:07:49;5.10;81.60
55313;DHT22;46892;45.668;11.756;2024-01-15T11:10:40;5.20;81.10
55313;DHT22;46892;45.668;11.756;2024-01-15T11:13:13;5.30;79.80
55313;DHT22;46892;45.668;11.756;2024-01-15T11:16:04;5.30;79.70
55313;DHT22;46892;45.668;11.756;2024-01-15T11:18:36;5.40;79.00
55313;DHT22;46892;45.668;11.756;2024-01-15T11:24:08;5.50;78.60
55313;DHT22;46892;45.668;11.756;2024-01-15T11:26:44;5.50;78.50
55313;DHT22;46892;45.668;11.756;2024-01-15T11:31:56;5.60;79.00
55313;DHT22;46892;45.668;11.756;2024-01-15T11:37:20;5.60;79.00
55313;DHT22;46892;45.668;11.756;2024-01-15T11:39:46;5.70;79.30
55313;DHT22;46892;45.668;11.756;2024-01-15T11:42:13;5.80;79.00
55313;DHT22;46892;45.668;11.756;2024-01-15T11:44:40;5.80;78.50
55313;DHT22;46892;45.668;11.756;2024-01-15T11:47:07;5.80;78.30
55313;DHT22;46892;45.668;11.756;2024-01-15T11:52:38;5.90;78.90
55313;DHT22;46892;45.668;11.756;2024-01-15T11:55:10;5.90;77.50
55313;DHT22;46892;45.668;11.756;2024-01-15T11:57:40;6.00;77.50
55313;DHT22;46892;45.668;11.756;2024-01-15T12:00:10;6.00;78.00
55313;DHT22;46892;45.668;11.756;2024-01-15T12:02:44;6.00;77.30
55313;DHT22;46892;45.668;11.756;2024-01-15T12:05:14;6.10;78.40
55313;DHT22;46892;45.668;11.756;2024-01-15T12:07:42;6.10;78.10
55313;DHT22;46892;45.668;11.756;2024-01-15T12:10:09;6.20;77.90
55313;DHT22;46892;45.668;11.756;2024-01-15T12:15:25;6.20;76.70
55313;DHT22;46892;45.668;11.756;2024-01-15T12:17:52;6.10;76.60
55313;DHT22;46892;45.668;11.756;2024-01-15T12:20:18;6.20;77.10
55313;DHT22;46892;45.668;11.756;2024-01-15T12:22:44;6.10;77.30
55313;DHT22;46892;45.668;11.756;2024-01-15T12:25:11;6.10;76.90
55313;DHT22;46892;45.668;11.756;2024-01-15T12:27:37;6.10;77.60
55313;DHT22;46892;45.668;11.756;2024-01-15T12:30:04;6.10;77.60
55313;DHT22;46892;45.668;11.756;2024-01-15T12:32:29;6.10;77.90
55313;DHT22;46892;45.668;11.756;2024-01-15T12:34:55;6.20;77.70
55313;DHT22;46892;45.668;11.756;2024-01-15T12:37:21;6.10;76.70
55313;DHT22;46892;45.668;11.756;2024-01-15T12:39:47;6.10;76.50
55313;DHT22;46892;45.668;11.756;2024-01-15T12:42:16;6.00;76.90
55313;DHT22;46892;45.668;11.756;2024-01-15T12:44:44;6.20;76.90
55313;DHT22;46892;45.668;11.756;2024-01-15T12:47:10;6.30;76.70
55313;DHT22;46892;45.668;11.756;2024-01-15T12:49:39;6.20;77.00
55313;DHT22;46892;45.668;11.756;2024-01-15T12:52:08;6.30;77.40
55313;DHT22;46892;45.668;11.756;2024-01-15T12:54:34;6.30;77.00
55313;DHT22;46892;45.668;11.756;2024-01-15T12:57:00;6.30;77.20
55313;DHT22;46892;45.668;11.756;2024-01-15T12:59:26;6.30;77.30
55313;DHT22;46892;45.668;11.756;2024-01-15T13:01:52;6.30;77.50
55313;DHT22;46892;45.668;11.756;2024-01-15T13:04:22;6.30;77.50
55313;DHT22;46892;45.668;11.756;2024-01-15T13:06:52;6.30;77.70
55313;DHT22;46892;45.668;11.756;2024-01-15T13:09:18;6.30;77.60
55313;DHT22;46892;45.668;11.756;2024-01-15T13:11:47;6.30;77.60
55313;DHT22;46892;45.668;11.756;2024-01-15T13:14:13;6.30;77.60
55313;DHT22;46892;45.668;11.756;2024-01-15T13:16:43;6.30;77.90
55313;DHT22;46892;45.668;11.756;2024-01-15T13:19:09;6.30;77.70
55313;DHT22;46892;45.668;11.756;2024-01-15T13:21:37;6.20;77.60
55313;DHT22;46892;45.668;11.756;2024-01-15T13:24:03;6.30;77.40
55313;DHT22;46892;45.668;11.756;2024-01-15T13:26:32;6.20;76.90
55313;DHT22;46892;45.668;11.756;2024-01-15T13:29:01;6.20;76.60
55313;DHT22;46892;45.668;11.756;2024-01-15T13:31:30;6.30;76.40
55313;DHT22;46892;45.668;11.756;2024-01-15T13:33:56;6.30;76.30
55313;DHT22;46892;45.668;11.756;2024-01-15T13:36:24;6.30;76.40
55313;DHT22;46892;45.668;11.756;2024-01-15T13:38:53;6.40;75.90
55313;DHT22;46892;45.668;11.756;2024-01-15T13:41:20;6.30;76.30
55313;DHT22;46892;45.668;11.756;2024-01-15T13:43:50;6.30;76.50
55313;DHT22;46892;45.668;11.756;2024-01-15T13:46:18;6.30;76.70
55313;DHT22;46892;45.668;11.756;2024-01-15T13:48:44;6.30;76.70
55313;DHT22;46892;45.668;11.756;2024-01-15T13:51:10;6.30;77.30
55313;DHT22;46892;45.668;11.756;2024-01-15T13:53:38;6.30;77.50
55313;DHT22;46892;45.668;11.756;2024-01-15T13:56:04;6.30;77.00
55313;DHT22;46892;45.668;11.756;2024-01-15T13:58:31;6.20;77.10
55313;DHT22;46892;45.668;11.756;2024-01-15T14:00:58;6.30;77.10
55313;DHT22;46892;45.668;11.756;2024-01-15T14:03:24;6.20;76.60
55313;DHT22;46892;45.668;11.756;2024-01-15T14:05:51;6.20;77.20
55313;DHT22;46892;45.668;11.756;2024-01-15T14:08:17;6.10;76.70
55313;DHT22;46892;45.668;11.756;2024-01-15T14:10:43;6.10;76.20
55313;DHT22;46892;45.668;11.756;2024-01-15T14:13:09;6.10;75.70
55313;DHT22;46892;45.668;11.756;2024-01-15T14:15:35;6.10;75.90
55313;DHT22;46892;45.668;11.756;2024-01-15T14:18:00;6.10;75.70
55313;DHT22;46892;45.668;11.756;2024-01-15T14:20:27;6.30;75.10
55313;DHT22;46892;45.668;11.756;2024-01-15T14:22:53;6.20;75.10
55313;DHT22;46892;45.668;11.756;2024-01-15T14:25:20;6.10;75.50
55313;DHT22;46892;45.668;11.756;2024-01-15T14:27:46;6.10;75.70
55313;DHT22;46892;45.668;11.756;2024-01-15T14:30:12;6.10;76.10
55313;DHT22;46892;45.668;11.756;2024-01-15T14:32:39;6.10;76.40
55313;DHT22;46892;45.668;11.756;2024-01-15T14:35:05;6.20;76.20
55313;DHT22;46892;45.668;11.756;2024-01-15T14:37:33;6.10;76.40
55313;DHT22;46892;45.668;11.756;2024-01-15T14:39:59;6.20;76.60
55313;DHT22;46892;45.668;11.756;2024-01-15T14:42:25;6.20;76.60
55313;DHT22;46892;45.668;11.756;2024-01-15T14:44:51;6.20;76.60
55313;DHT22;46892;45.668;11.756;2024-01-15T14:47:17;6.10;76.80
55313;DHT22;46892;45.668;11.756;2024-01-15T14:49:42;6.10;77.00
55313;DHT22;46892;45.668;11.756;2024-01-15T14:52:08;6.10;77.10
55313;DHT22;46892;45.668;11.756;2024-01-15T14:54:34;6.00;77.10
55313;DHT22;46892;45.668;11.756;2024-01-15T14:57:00;6.00;77.10
55313;DHT22;46892;45.668;11.756;2024-01-15T14:59:26;6.00;77.20
55313;DHT22;46892;45.668;11.756;2024-01-15T15:01:54;6.00;77.20
55313;DHT22;46892;45.668;11.756;2024-01-15T15:04:20;5.90;77.10
55313;DHT22;46892;45.668;11.756;2024-01-15T15:06:45;5.90;77.10
55313;DHT22;46892;45.668;11.756;2024-01-15T15:09:11;5.90;77.20
55313;DHT22;46892;45.668;11.756;2024-01-15T15:11:37;5.80;77.30
55313;DHT22;46892;45.668;11.756;2024-01-15T15:14:04;5.80;77.40
55313;DHT22;46892;45.668;11.756;2024-01-15T15:16:31;5.80;77.50
55313;DHT22;46892;45.668;11.756;2024-01-15T15:18:57;5.70;77.60
55313;DHT22;46892;45.668;11.756;2024-01-15T15:21:23;5.70;77.80
55313;DHT22;46892;45.668;11.756;2024-01-15T15:23:48;5.70;78.00
55313;DHT22;46892;45.668;11.756;2024-01-15T15:26:14;5.70;78.10
55313;DHT22;46892;45.668;11.756;2024-01-15T15:28:40;5.70;78.40
55313;DHT22;46892;45.668;11.756;2024-01-15T15:31:06;5.60;78.90
55313;DHT22;46892;45.668;11.756;2024-01-15T15:33:36;5.50;79.20
55313;DHT22;46892;45.668;11.756;2024-01-15T15:36:02;5.40;79.20
55313;DHT22;46892;45.668;11.756;2024-01-15T15:38:33;5.40;79.10
55313;DHT22;46892;45.668;11.756;2024-01-15T15:40:59;5.30;79.20
55313;DHT22;46892;45.668;11.756;2024-01-15T15:43:26;5.20;79.10
55313;DHT22;46892;45.668;11.756;2024-01-15T15:45:52;5.10;78.90
55313;DHT22;46892;45.668;11.756;2024-01-15T15:48:17;5.00;79.30
55313;DHT22;46892;45.668;11.756;2024-01-15T15:50:43;5.00;79.40
55313;DHT22;46892;45.668;11.756;2024-01-15T15:53:09;5.00;79.70
55313;DHT22;46892;45.668;11.756;2024-01-15T15:55:35;4.90;79.90
55313;DHT22;46892;45.668;11.756;2024-01-15T15:58:05;4.80;80.10
55313;DHT22;46892;45.668;11.756;2024-01-15T16:00:31;4.70;80.30
55313;DHT22;46892;45.668;11.756;2024-01-15T16:02:57;4.60;80.30
55313;DHT22;46892;45.668;11.756;2024-01-15T16:05:23;4.60;80.40
55313;DHT22;46892;45.668;11.756;2024-01-15T16:07:49;4.50;80.50
55313;DHT22;46892;45.668;11.756;2024-01-15T16:10:15;4.40;80.70
55313;DHT22;46892;45.668;11.756;2024-01-15T16:12:42;4.40;81.00
55313;DHT22;46892;45.668;11.756;2024-01-15T16:15:21;4.30;81.20
55313;DHT22;46892;45.668;11.756;2024-01-15T16:17:48;4.30;81.40
55313;DHT22;46892;45.668;11.756;2024-01-15T16:20:17;4.30;81.40
55313;DHT22;46892;45.668;11.756;2024-01-15T16:22:44;4.20;81.40
55313;DHT22;46892;45.668;11.756;2024-01-15T16:25:10;4.10;81.20
55313;DHT22;46892;45.668;11.756;2024-01-15T16:27:36;3.90;81.20
55313;DHT22;46892;45.668;11.756;2024-01-15T16:30:09;3.80;81.70
55313;DHT22;46892;45.668;11.756;2024-01-15T16:32:35;3.70;82.30
55313;DHT22;46892;45.668;11.756;2024-01-15T16:35:01;3.60;82.60
55313;DHT22;46892;45.668;11.756;2024-01-15T16:37:28;3.60;82.70
55313;DHT22;46892;45.668;11.756;2024-01-15T16:39:54;3.60;82.80
55313;DHT22;46892;45.668;11.756;2024-01-15T16:42:20;3.50;82.50
55313;DHT22;46892;45.668;11.756;2024-01-15T16:44:45;3.40;82.80
55313;DHT22;46892;45.668;11.756;2024-01-15T16:47:11;3.40;83.00
55313;DHT22;46892;45.668;11.756;2024-01-15T16:49:37;3.30;83.20
55313;DHT22;46892;45.668;11.756;2024-01-15T16:52:03;3.20;83.40
55313;DHT22;46892;45.668;11.756;2024-01-15T16:54:32;3.20;84.00
55313;DHT22;46892;45.668;11.756;2024-01-15T16:56:58;3.10;84.10
55313;DHT22;46892;45.668;11.756;2024-01-15T16:59:24;3.10;84.20
55313;DHT22;46892;45.668;11.756;2024-01-15T17:01:50;3.00;84.10
55313;DHT22;46892;45.668;11.756;2024-01-15T17:04:16;2.90;84.60